Time;durP1;ratioP1;P1;durP2;ratioP2;P2;SDS_P1;SDS_P2;PMS_P1;PMS_P2;Temp;Humidity;BMP_temperature;BMP_pressure;BME280_temperature;BME280_humidity;BME280_pressure;Samples;Min_cycle;Max_cycle;Signal;HPM_P1;HPM_P2
2022/06/22 00:02:40;;;;;;;9.60;2.40;;;;;;;21.12;56.56;98409.22;10094249;29;20494;-70
2022/06/22 00:07:51;;;;;;;11.57;2.38;;;;;;;21.88;57.95;98517.63;10094658;29;20524;-70
2022/06/22 00:12:54;;;;;;;12.32;2.60;;;;;;;21.85;56.54;98510.88;10095772;29;20528;-70
2022/06/22 00:17:55;;;;;;;10.40;2.53;;;;;;;21.35;55.69;98420.31;10101668;29;20045;-69
2022/06/22 00:23:00;;;;;;;11.35;2.33;;;;;;;21.97;56.88;98531.31;10099412;29;20520;-69
2022/06/22 00:28:50;;;;;;;27.38;2.88;;;;;;;21.97;58.12;98531.31;10100692;29;20045;-70
2022/06/22 00:34:10;;;;;;;13.15;2.40;;;;;;;21.81;58.42;98509.06;10100533;29;20450;-70
2022/06/22 00:39:24;;;;;;;15.35;3.05;;;;;;;21.80;58.64;98529.84;10100363;29;20052;-70
2022/06/22 00:44:32;;;;;;;132.75;10.77;;;;;;;21.79;59.12;98538.25;10099944;29;20391;-70
2022/06/22 00:49:35;;;;;;;37.20;4.53;;;;;;;21.74;58.50;98530.19;10099439;29;20136;-70
2022/06/22 00:54:37;;;;;;;55.73;6.67;;;;;;;21.79;58.15;98538.25;10099619;29;20049;-70
2022/06/22 01:00:13;;;;;;;27.05;4.63;;;;;;;21.85;59.33;98543.31;10099764;29;20041;-70
2022/06/22 01:05:23;;;;;;;47.65;5.10;;;;;;;21.67;59.30;98522.44;10098101;29;20129;-70
2022/06/22 01:10:35;;;;;;;9.55;2.40;;;;;;;21.76;60.26;98558.56;10098886;29;20081;-70
2022/06/22 01:15:44;;;;;;;14.88;3.03;;;;;;;21.72;61.08;98549.41;10098952;29;20041;-70
2022/06/22 01:20:56;;;;;;;26.98;4.15;;;;;;;21.76;66.33;98555.06;10096702;29;20141;-70
2022/06/22 01:26:23;;;;;;;24.15;3.15;;;;;;;21.47;69.70;98542.31;10098239;29;20063;-70
2022/06/22 01:31:24;;;;;;;19.60;4.60;;;;;;;20.24;69.28;98399.31;10096500;29;20041;-70
2022/06/22 01:36:30;;;;;;;38.65;6.60;;;;;;;20.72;74.44;98526.38;10098804;29;20052;-70
2022/06/22 01:41:49;;;;;;;19.23;5.00;;;;;;;20.52;77.55;98524.56;10097686;29;20454;-69
2022/06/22 01:47:27;;;;;;;17.45;5.50;;;;;;;20.41;81.84;98521.09;10098168;29;20097;-69
2022/06/22 01:52:45;;;;;;;17.60;5.35;;;;;;;20.40;85.47;98524.91;10097681;29;20052;-69
2022/06/22 01:58:15;;;;;;;26.42;5.97;;;;;;;20.23;82.50;98500.97;10096959;29;20041;-69
2022/06/22 02:03:24;;;;;;;21.02;4.85;;;;;;;20.09;84.65;98486.44;10088896;29;20104;-70
2022/06/22 02:08:36;;;;;;;13.68;3.88;;;;;;;20.38;85.60;98526.25;10095358;29;20045;-69
2022/06/22 02:13:46;;;;;;;12.50;4.55;;;;;;;20.39;85.49;98541.34;10096823;29;20049;-70
2022/06/22 02:19:10;;;;;;;12.75;4.53;;;;;;;20.52;86.28;98546.97;10096250;29;20053;-69
2022/06/22 02:24:27;;;;;;;14.35;3.63;;;;;;;20.44;81.46;98538.63;10095252;29;20140;-69
2022/06/22 02:29:36;;;;;;;17.02;3.90;;;;;;;20.21;82.81;98505.81;10091853;29;20200;-69
2022/06/22 02:34:41;;;;;;;22.83;4.90;;;;;;;20.29;81.75;98516.03;10094219;29;20409;-69
2022/06/22 02:39:48;;;;;;;15.77;3.83;;;;;;;20.41;82.69;98545.38;10094572;29;20048;-69
2022/06/22 02:44:50;;;;;;;37.15;5.00;;;;;;;20.43;80.53;98551.31;10095036;29;20494;-70
2022/06/22 02:49:54;;;;;;;40.67;5.28;;;;;;;19.20;82.56;98353.34;10095839;29;20048;-69
2022/06/22 02:54:57;;;;;;;21.13;4.13;;;;;;;20.37;80.71;98535.41;10095670;29;20041;-70
2022/06/22 02:59:59;;;;;;;25.45;4.68;;;;;;;19.99;78.75;98460.34;10094273;29;20052;-70
2022/06/22 03:05:01;;;;;;;17.45;4.10;;;;;;;20.65;79.55;98552.84;10093975;29;20137;-70
2022/06/22 03:10:04;;;;;;;41.10;5.47;;;;;;;20.75;81.68;98558.19;10094007;29;20052;-69
2022/06/22 03:15:13;;;;;;;14.13;4.45;;;;;;;20.91;82.05;98572.38;10094841;29;20057;-70
2022/06/22 03:20:18;;;;;;;17.63;5.07;;;;;;;21.03;82.44;98543.19;10094885;29;20109;-70
2022/06/22 03:25:51;;;;;;;12.00;3.88;;;;;;;21.18;83.15;98544.97;10095383;29;20139;-70
2022/06/22 03:30:56;;;;;;;15.02;4.50;;;;;;;21.26;83.15;98554.34;10093442;29;20049;-70
2022/06/22 03:36:01;;;;;;;40.33;5.32;;;;;;;20.49;84.16;98425.31;10093010;29;20049;-70
2022/06/22 03:41:11;;;;;;;14.25;4.20;;;;;;;20.84;83.08;98453.97;10055727;29;20476;-71
2022/06/22 03:46:17;;;;;;;15.90;4.40;;;;;;;21.65;80.42;98565.13;10070652;29;20136;-70
2022/06/22 03:51:28;;;;;;;11.43;4.80;;;;;;;21.93;80.50;98573.53;10096500;29;20045;-71
2022/06/22 03:56:35;;;;;;;13.82;4.32;;;;;;;21.81;74.71;98547.69;10099292;29;20508;-71
2022/06/22 04:01:37;;;;;;;10.95;3.22;;;;;;;22.09;72.67;98562.28;10088220;29;20072;-70
2022/06/22 04:06:43;;;;;;;11.80;3.33;;;;;;;21.51;71.11;98448.84;10091965;29;20569;-70
2022/06/22 04:11:47;;;;;;;14.63;3.20;;;;;;;22.14;68.54;98545.19;10095753;29;20124;-71
2022/06/22 04:16:52;;;;;;;20.58;3.78;;;;;;;22.11;68.90;98540.38;10099608;29;20049;-71
2022/06/22 04:22:08;;;;;;;13.27;2.80;;;;;;;22.22;66.81;98551.88;10100957;29;20041;-73
2022/06/22 04:27:33;;;;;;;15.95;3.03;;;;;;;22.09;67.26;98532.53;10100897;29;20040;-72
2022/06/22 04:32:59;;;;;;;8.57;2.78;;;;;;;21.97;67.27;98490.75;10097978;29;20566;-71
2022/06/22 04:38:08;;;;;;;12.35;2.92;;;;;;;22.59;66.03;98561.19;10100357;29;20045;-72
2022/06/22 04:43:10;;;;;;;7.57;2.53;;;;;;;22.57;65.42;98531.72;10099253;29;20036;-71
2022/06/22 04:48:25;;;;;;;17.98;3.17;;;;;;;23.00;64.31;98556.03;10097398;29;20049;-72
2022/06/22 04:53:28;;;;;;;11.95;2.85;;;;;;;22.40;65.27;98432.09;10099454;29;20041;-71
2022/06/22 04:58:43;;;;;;;16.58;2.80;;;;;;;22.69;64.89;98461.72;10098534;29;20069;-71
2022/06/22 05:03:44;;;;;;;16.08;2.85;;;;;;;23.28;64.08;98542.63;10099098;29;20068;-71
2022/06/22 05:09:22;;;;;;;22.65;2.92;;;;;;;23.52;63.31;98551.44;10099866;29;20052;-72
2022/06/22 05:14:31;;;;;;;13.05;2.92;;;;;;;23.63;64.53;98549.34;10100763;29;20116;-71
2022/06/22 05:19:58;;;;;;;8.80;2.72;;;;;;;23.79;62.72;98544.50;10099611;29;20079;-71
2022/06/22 05:25:03;;;;;;;11.30;2.92;;;;;;;23.87;62.52;98513.97;10098327;29;20072;-71
2022/06/22 05:30:07;;;;;;;17.75;3.00;;;;;;;24.09;61.08;98521.44;10096986;29;20061;-72
2022/06/22 05:35:15;;;;;;;11.88;3.38;;;;;;;24.39;62.17;98511.88;10094459;29;20065;-72
2022/06/22 05:40:19;;;;;;;10.10;2.97;;;;;;;24.78;60.61;98532.25;10097712;29;20600;-72
2022/06/22 05:45:25;;;;;;;11.38;2.88;;;;;;;24.32;59.39;98427.34;10096045;29;20051;-72
2022/06/22 05:50:36;;;;;;;6.35;2.55;;;;;;;24.46;58.66;98422.72;10092685;29;20040;-72
2022/06/22 05:55:40;;;;;;;5.03;2.53;;;;;;;25.22;57.89;98536.97;10093646;29;20053;-72
2022/06/22 06:00:51;;;;;;;;;;;;;;;25.45;57.52;98535.00;10096842;29;20048;-72
2022/06/22 06:06:00;;;;;;;7.10;2.10;;;;;;;25.07;56.31;98512.84;10097586;29;20014;-71
2022/06/22 06:11:02;;;;;;;10.65;2.92;;;;;;;24.87;57.22;98495.09;10094016;29;20162;-71
2022/06/22 06:16:09;;;;;;;7.70;2.90;;;;;;;24.93;57.52;98510.16;10097359;29;20099;-72
2022/06/22 06:21:17;;;;;;;5.70;2.80;;;;;;;25.09;57.05;98526.09;10095986;29;20620;-71
2022/06/22 06:32:35;;;;;;;6.07;2.45;;;;;;;25.25;57.15;98528.19;10095893;29;20037;-71
2022/06/22 06:38:08;;;;;;;13.05;2.88;;;;;;;25.44;56.80;98524.47;10096047;29;20089;-71
2022/06/22 06:43:30;;;;;;;18.25;3.17;;;;;;;25.56;55.25;98534.78;10101857;29;20502;-72
2022/06/22 06:48:33;;;;;;;8.52;2.70;;;;;;;25.61;55.82;98523.78;10094575;29;20049;-72
2022/06/22 06:53:57;;;;;;;16.83;8.63;;;;;;;25.94;55.83;98530.53;10095475;29;20133;-72
2022/06/22 06:59:05;;;;;;;13.50;4.05;;;;;;;26.06;54.09;98527.22;10094957;29;20045;-71
2022/06/22 07:04:13;;;;;;;19.40;3.30;;;;;;;26.27;54.15;98537.53;10094121;29;20088;-72
2022/06/22 07:09:21;;;;;;;8.57;2.97;;;;;;;26.13;53.63;98483.22;10095399;29;20421;-72
2022/06/22 07:14:28;;;;;;;12.38;5.38;;;;;;;25.94;51.88;98427.16;10095396;29;20096;-71
2022/06/22 07:19:35;;;;;;;24.00;10.60;;;;;;;26.61;51.65;98525.94;10095205;29;20047;-71
2022/06/22 07:24:43;;;;;;;8.45;3.60;;;;;;;26.64;50.94;98544.38;10100733;29;20394;-71
2022/06/22 07:29:47;;;;;;;10.35;3.60;;;;;;;26.11;50.85;98452.78;10103365;29;20043;-71
2022/06/22 07:35:08;;;;;;;7.10;3.25;;;;;;;26.75;50.29;98553.84;10102730;29;20097;-71
2022/06/22 07:40:21;;;;;;;6.80;2.65;;;;;;;26.61;50.34;98545.78;10107795;29;20487;-71
2022/06/22 07:45:24;;;;;;;23.00;3.47;;;;;;;26.54;50.20;98542.75;10101877;29;20498;-71
2022/06/22 07:50:32;;;;;;;14.95;5.55;;;;;;;25.88;52.16;98422.97;10102793;29;20438;-71
2022/06/22 07:55:56;;;;;;;12.63;4.60;;;;;;;25.91;50.48;98413.38;10101985;29;20101;-71
2022/06/22 08:01:02;;;;;;;14.80;3.33;;;;;;;26.78;50.27;98553.19;10101385;29;20080;-72
2022/06/22 08:06:13;;;;;;;8.73;2.70;;;;;;;26.70;49.91;98518.56;10099971;29;20605;-71
2022/06/22 08:11:24;;;;;;;13.27;3.05;;;;;;;27.01;49.70;98539.41;10101637;29;20048;-71
2022/06/22 08:16:36;;;;;;;10.95;2.80;;;;;;;26.95;48.70;98518.91;10100774;29;20049;-71
2022/06/22 08:21:48;;;;;;;13.68;3.50;;;;;;;26.79;50.57;98515.88;10101724;29;20505;-71
2022/06/22 08:26:53;;;;;;;8.40;2.60;;;;;;;26.67;48.26;98535.56;10100451;29;20417;-71
2022/06/22 08:32:08;;;;;;;9.52;2.63;;;;;;;26.59;48.06;98558.13;10099483;29;20449;-72
2022/06/22 08:37:44;;;;;;;11.65;3.00;;;;;;;26.54;49.80;98539.22;10078722;29;20410;-70
2022/06/22 08:43:13;;;;;;;22.90;8.18;;;;;;;26.32;49.74;98529.19;10097151;29;20053;-70
2022/06/22 08:48:37;;;;;;;30.08;14.63;;;;;;;26.37;49.96;98543.47;10075812;29;20104;-70
2022/06/22 08:54:02;;;;;;;41.30;16.75;;;;;;;26.38;50.30;98536.94;10098217;29;20577;-70
2022/06/22 08:59:12;;;;;;;21.40;6.18;;;;;;;26.34;49.20;98538.66;10092669;29;20052;-70
2022/06/22 09:04:28;;;;;;;11.85;4.03;;;;;;;26.17;48.75;98514.09;10094143;29;20057;-70
2022/06/22 09:09:40;;;;;;;20.15;3.30;;;;;;;26.26;48.61;98539.44;10092676;29;20060;-70
2022/06/22 09:15:07;;;;;;;7.67;2.87;;;;;;;26.53;48.71;98552.03;10093935;29;20048;-70
2022/06/22 09:20:13;;;;;;;13.18;2.63;;;;;;;25.84;47.71;98434.78;10108370;29;20289;-69
2022/06/22 09:25:26;;;;;;;11.75;2.67;;;;;;;25.98;47.81;98443.63;10094454;29;20045;-70
2022/06/22 09:30:41;;;;;;;40.33;4.45;;;;;;;26.77;49.28;98554.31;10092994;29;20589;-70
2022/06/22 09:35:49;;;;;;;21.38;5.10;;;;;;;26.81;48.65;98549.84;10091127;29;20101;-71
2022/06/22 09:41:10;;;;;;;13.82;4.35;;;;;;;26.96;47.83;98550.50;10093533;29;20116;-70
2022/06/22 09:46:19;;;;;;;14.77;2.92;;;;;;;26.75;46.41;98504.00;10091846;29;20081;-70
2022/06/22 09:51:56;;;;;;;11.25;2.80;;;;;;;27.04;46.67;98538.78;10088526;29;20096;-70
2022/06/22 09:57:25;;;;;;;12.90;2.40;;;;;;;27.24;47.75;98537.38;10105236;29;20594;-70
2022/06/22 10:02:52;;;;;;;18.95;2.65;;;;;;;27.35;46.09;98533.19;10090997;29;20063;-70
2022/06/22 10:08:24;;;;;;;10.95;2.53;;;;;;;27.62;44.56;98531.22;10089915;29;20057;-70
2022/06/22 10:13:33;;;;;;;5.90;2.30;;;;;;;27.16;44.88;98440.84;10095837;29;20051;-70
2022/06/22 10:18:52;;;;;;;18.60;2.92;;;;;;;27.82;45.68;98521.53;10092726;29;20585;-70
2022/06/22 10:24:10;;;;;;;18.38;2.58;;;;;;;28.05;43.20;98519.38;10088982;29;20418;-71
2022/06/22 10:29:39;;;;;;;10.00;2.45;;;;;;;28.13;44.70;98508.41;10090157;29;20162;-70
2022/06/22 10:34:56;;;;;;;27.20;3.78;;;;;;;27.59;45.74;98420.84;10089778;29;20089;-70
2022/06/22 10:40:05;;;;;;;15.15;2.72;;;;;;;28.15;45.84;98506.16;10088058;29;20485;-70
2022/06/22 10:45:15;;;;;;;6.78;2.13;;;;;;;28.21;44.78;98507.56;10096009;29;20072;-70
2022/06/22 10:50:18;;;;;;;11.55;2.30;;;;;;;28.29;44.35;98500.44;10094331;29;20143;-69
2022/06/22 10:55:31;;;;;;;13.23;2.45;;;;;;;28.39;44.39;98499.25;10088869;29;20119;-70
2022/06/22 11:00:52;;;;;;;11.27;2.35;;;;;;;27.72;44.52;98389.78;10088451;29;20045;-70
2022/06/22 11:06:19;;;;;;;19.08;3.17;;;;;;;28.53;45.38;98499.06;10092870;29;20069;-70
2022/06/22 11:11:39;;;;;;;15.27;2.58;;;;;;;28.05;43.54;98412.94;10093773;29;20417;-70
2022/06/22 11:16:53;;;;;;;8.75;2.17;;;;;;;28.59;41.29;98484.06;10094874;29;20045;-70
2022/06/22 11:22:16;;;;;;;10.15;2.10;;;;;;;28.90;42.08;98502.81;10094023;29;20502;-70
2022/06/22 11:33:06;;;;;;;41.92;3.53;;;;;;;29.02;39.31;98508.34;10094219;29;20045;-71
2022/06/22 11:38:22;;;;;;;12.57;1.98;;;;;;;29.05;39.37;98504.97;10092372;29;20055;-70
2022/06/22 11:43:36;;;;;;;10.00;2.10;;;;;;;28.72;39.18;98422.09;10091750;29;20130;-70
2022/06/22 11:48:56;;;;;;;5.88;1.80;;;;;;;29.49;37.48;98497.09;10089809;29;20052;-70
2022/06/22 11:54:16;;;;;;;10.38;2.40;;;;;;;29.66;36.63;98489.88;10087450;29;20045;-70
2022/06/22 11:59:43;;;;;;;10.18;2.03;;;;;;;30.01;34.86;98490.25;10089640;29;20049;-70
2022/06/22 12:04:46;;;;;;;6.32;1.77;;;;;;;30.17;32.38;98493.09;10105804;29;20092;-70
2022/06/22 12:10:41;;;;;;;4.32;1.60;;;;;;;30.40;31.32;98490.72;10093259;29;20045;-67
2022/06/22 12:15:59;;;;;;;4.15;1.40;;;;;;;30.44;31.05;98505.31;10111606;29;20053;-67
2022/06/22 12:21:29;;;;;;;3.97;1.50;;;;;;;30.20;29.87;98459.56;10095330;29;20037;-68
2022/06/22 12:26:59;;;;;;;7.07;1.83;;;;;;;30.24;30.17;98488.69;10092496;29;20143;-67
2022/06/22 12:32:32;;;;;;;5.35;1.33;;;;;;;30.02;30.76;98494.59;10096339;29;20439;-70
2022/06/22 12:38:08;;;;;;;10.23;2.20;;;;;;;29.97;30.67;98494.81;10092551;29;20069;-70
2022/06/22 12:43:46;;;;;;;12.20;2.70;;;;;;;29.99;29.71;98489.81;10093780;29;20060;-68
2022/06/22 12:49:07;;;;;;;3.70;1.35;;;;;;;30.05;30.20;98491.16;10093524;29;20108;-69
2022/06/22 12:54:20;;;;;;;8.85;2.75;;;;;;;30.02;31.14;98489.13;10092361;29;20048;-69
2022/06/22 12:59:41;;;;;;;;;;;;;;;30.22;32.63;98485.50;10093794;29;20048;-71
2022/06/22 13:04:46;;;;;;;5.85;1.48;;;;;;;30.02;31.68;98476.22;10091920;29;20384;-69
2022/06/22 13:09:47;;;;;;;7.50;1.38;;;;;;;30.31;31.10;98479.91;10094590;29;20080;-69
2022/06/22 13:15:09;;;;;;;18.38;1.83;;;;;;;30.57;29.64;98475.94;10093161;29;20123;-69
2022/06/22 13:20:19;;;;;;;14.38;1.98;;;;;;;30.89;29.55;98480.44;10088615;29;20181;-70
2022/06/22 13:25:38;;;;;;;27.15;2.47;;;;;;;31.19;29.67;98466.38;10084651;29;20148;-70
2022/06/22 13:30:47;;;;;;;9.27;3.00;;;;;;;31.19;29.36;98466.38;10092405;29;20045;-69
2022/06/22 13:36:17;;;;;;;11.48;2.80;;;;;;;31.48;30.12;98467.19;10091840;29;20041;-69
2022/06/22 13:41:42;;;;;;;6.60;1.55;;;;;;;31.46;28.07;98463.97;10124631;29;20053;-69
2022/06/22 13:47:01;;;;;;;10.05;1.73;;;;;;;31.19;29.84;98468.34;10091454;29;20053;-69
2022/06/22 13:52:19;;;;;;;5.68;1.42;;;;;;;30.40;29.18;98381.94;10090937;29;20048;-69
2022/06/22 13:57:33;;;;;;;8.52;1.85;;;;;;;30.73;30.43;98487.81;10091608;29;20065;-70
2022/06/22 14:02:58;;;;;;;10.82;1.80;;;;;;;29.35;30.87;98288.78;10093108;29;20096;-70
2022/06/22 14:08:11;;;;;;;30.80;3.58;;;;;;;29.73;33.33;98377.91;10088384;29;20073;-69
2022/06/22 14:13:46;;;;;;;13.52;2.05;;;;;;;30.23;35.11;98489.03;10092288;29;20048;-69
2022/06/22 14:19:07;;;;;;;19.70;2.05;;;;;;;30.01;33.96;98493.00;10089344;29;20221;-69
2022/06/22 14:24:17;;;;;;;14.95;2.72;;;;;;;29.74;34.40;98494.47;10089269;29;20107;-69
2022/06/22 14:29:33;;;;;;;15.50;2.10;;;;;;;28.96;33.88;98415.91;10084059;29;20043;-70
2022/06/22 14:34:54;;;;;;;19.77;2.97;;;;;;;29.24;39.21;98511.84;10086193;29;20049;-68
2022/06/22 14:40:02;;;;;;;17.55;3.15;;;;;;;28.66;40.79;98519.88;10089060;29;20041;-67
2022/06/22 14:45:11;;;;;;;16.13;3.15;;;;;;;28.16;42.50;98545.19;10086054;29;20049;-68
2022/06/22 14:50:27;;;;;;;22.70;3.28;;;;;;;27.11;42.80;98419.19;10058042;29;20072;-69
2022/06/22 14:55:52;;;;;;;8.73;3.60;;;;;;;27.53;44.79;98539.41;10057200;29;20046;-67
2022/06/22 15:01:02;;;;;;;9.80;2.88;;;;;;;27.23;45.88;98552.13;10057692;29;20054;-68
2022/06/22 15:06:13;;;;;;;12.95;2.80;;;;;;;27.04;46.37;98552.41;10055570;29;20474;-68
2022/06/22 15:17:21;;;;;;;8.73;2.53;;;;;;;26.71;46.12;98533.00;10056853;29;20141;-69
2022/06/22 15:22:33;;;;;;;13.15;3.55;;;;;;;26.91;45.87;98583.34;10072629;29;20045;-68
2022/06/22 15:27:57;;;;;;;7.28;2.40;;;;;;;26.79;46.76;98592.94;10094131;29;20158;-69
2022/06/22 15:33:07;;;;;;;22.25;3.45;;;;;;;26.73;47.25;98587.97;10094945;29;20065;-69
2022/06/22 15:38:14;;;;;;;9.20;3.00;;;;;;;26.72;46.48;98597.25;10095444;29;20085;-68
2022/06/22 15:43:33;;;;;;;13.80;2.80;;;;;;;26.64;47.23;98590.66;10096561;29;20048;-69
2022/06/22 15:48:46;;;;;;;17.15;2.97;;;;;;;25.90;47.60;98507.75;10102933;29;20092;-68
2022/06/22 15:53:58;;;;;;;9.95;2.40;;;;;;;26.47;47.08;98621.31;10101693;29;20052;-69
2022/06/22 15:59:06;;;;;;;5.05;2.00;;;;;;;26.38;43.66;98604.16;10097471;29;20049;-68
2022/06/22 16:04:28;;;;;;;4.13;2.03;;;;;;;26.55;42.24;98636.13;10101994;29;20426;-68
2022/06/22 16:09:49;;;;;;;243.85;133.80;;;;;;;25.69;42.88;98523.78;10101086;29;20048;-70
2022/06/22 16:15:07;;;;;;;100.00;56.28;;;;;;;26.08;46.95;98654.78;10101448;29;20040;-74
2022/06/22 16:20:16;;;;;;;436.65;245.45;;;;;;;25.76;49.09;98648.47;10100247;29;20037;-73
2022/06/22 16:25:24;;;;;;;759.42;489.70;;;;;;;25.76;49.91;98683.84;10099934;29;20536;-74
2022/06/22 16:31:02;;;;;;;431.67;266.45;;;;;;;25.69;49.49;98705.19;10100354;29;20045;-74
2022/06/22 16:36:14;;;;;;;343.00;204.15;;;;;;;25.60;48.90;98720.66;10101206;29;20045;-73
2022/06/22 16:41:56;;;;;;;75.78;41.88;;;;;;;25.62;49.58;98746.41;10099612;29;20049;-74
2022/06/22 16:47:07;;;;;;;56.35;30.75;;;;;;;24.98;51.38;98681.19;10093119;29;20056;-74
2022/06/22 16:52:20;;;;;;;64.35;35.05;;;;;;;24.68;52.48;98660.88;10095265;29;20120;-74
2022/06/22 16:57:23;;;;;;;26.90;15.02;;;;;;;24.99;52.51;98766.19;10099201;29;20048;-75
2022/06/22 17:02:43;;;;;;;41.00;19.45;;;;;;;24.56;54.05;98742.81;10099869;29;20051;-77
2022/06/22 17:07:59;;;;;;;24.00;8.55;;;;;;;24.58;53.36;98786.75;10087775;29;20091;-73
2022/06/22 17:13:06;;;;;;;14.77;5.47;;;;;;;24.43;53.53;98800.59;10082489;29;20092;-72
2022/06/22 17:18:50;;;;;;;8.30;3.53;;;;;;;24.44;53.70;98826.66;10094618;29;20429;-73
2022/06/22 17:24:09;;;;;;;19.92;7.55;;;;;;;24.38;53.75;98831.31;10083954;29;20483;-74
2022/06/22 17:29:49;;;;;;;12.60;5.07;;;;;;;24.43;53.68;98838.59;10095031;29;20052;-73
2022/06/22 17:34:58;;;;;;;75.13;34.55;;;;;;;24.33;54.07;98844.16;10119822;29;20582;-72
2022/06/22 17:40:20;;;;;;;22.15;9.48;;;;;;;23.49;54.24;98736.31;10094437;29;20052;-72
2022/06/22 17:45:30;;;;;;;8.57;3.83;;;;;;;24.01;54.38;98834.84;10092944;29;20047;-74
2022/06/22 17:50:43;;;;;;;8.40;3.28;;;;;;;24.08;54.18;98854.28;10091202;29;20047;-75
2022/06/22 17:55:48;;;;;;;;;;;;;;;24.33;52.98;98885.66;10093596;29;20072;-73
2022/06/22 18:00:52;;;;;;;16.45;6.32;;;;;;;23.88;53.76;98857.28;10092531;29;19920;-75
2022/06/22 18:06:28;;;;;;;17.20;7.45;;;;;;;24.26;54.26;98900.69;10093044;29;20060;-73
2022/06/22 18:11:41;;;;;;;8.27;2.88;;;;;;;24.21;54.78;98908.91;10114657;29;20053;-73
2022/06/22 18:16:49;;;;;;;5.53;2.60;;;;;;;24.22;55.31;98924.09;10096659;29;20153;-73
2022/06/22 18:22:01;;;;;;;6.25;2.10;;;;;;;23.93;55.92;98889.75;10094684;29;20044;-73
2022/06/22 18:27:02;;;;;;;7.38;2.30;;;;;;;24.07;55.32;98936.75;10095587;29;20084;-75
2022/06/22 18:32:20;;;;;;;6.10;2.08;;;;;;;24.03;55.69;98940.38;10091997;29;20522;-72
2022/06/22 18:37:36;;;;;;;6.15;2.15;;;;;;;23.36;55.48;98848.97;10091606;29;20139;-74
2022/06/22 18:42:46;;;;;;;41.63;17.90;;;;;;;23.92;56.32;98948.59;10091870;29;20104;-75
2022/06/22 18:48:19;;;;;;;58.50;22.48;;;;;;;23.88;57.59;98944.88;10058188;29;20534;-75
2022/06/22 18:53:36;;;;;;;42.50;15.25;;;;;;;23.77;58.69;98946.06;10067702;29;20037;-75
2022/06/22 18:58:41;;;;;;;13.68;5.47;;;;;;;23.65;58.32;98959.22;10099382;29;20137;-73
2022/06/22 19:04:02;;;;;;;13.27;3.72;;;;;;;22.91;59.81;98842.06;10095079;29;20149;-75
2022/06/22 19:09:11;;;;;;;5.63;2.67;;;;;;;23.56;59.70;98964.44;10092487;29;20414;-76
2022/06/22 19:14:13;;;;;;;7.20;2.53;;;;;;;23.55;57.72;98976.38;10093186;29;20549;-75
2022/06/22 19:19:14;;;;;;;13.00;4.82;;;;;;;23.55;57.49;98970.97;10094480;29;20447;-75
2022/06/22 19:24:30;;;;;;;4.28;2.50;;;;;;;22.79;57.60;98864.09;10093615;29;20045;-76
2022/06/22 19:29:35;;;;;;;8.52;2.65;;;;;;;23.46;57.68;98980.81;10084475;29;20113;-75
2022/06/22 19:35:10;;;;;;;4.03;1.98;;;;;;;23.43;58.37;98974.06;10093425;29;20482;-75
2022/06/22 19:40:22;;;;;;;5.63;2.25;;;;;;;22.53;58.11;98860.81;10092032;29;20143;-73
2022/06/22 19:45:36;;;;;;;7.00;2.20;;;;;;;23.28;57.61;98978.84;10093716;29;20048;-73
2022/06/22 19:50:55;;;;;;;16.05;3.08;;;;;;;23.33;59.44;98986.88;10095283;29;20071;-73
2022/06/22 19:56:15;;;;;;;8.07;2.47;;;;;;;22.35;58.67;98848.78;10094221;29;20049;-73
2022/06/22 20:01:17;;;;;;;4.60;2.15;;;;;;;23.18;57.95;98996.78;10088956;29;20053;-73
2022/06/22 20:06:25;;;;;;;3.17;2.05;;;;;;;23.05;58.06;98985.78;10094594;29;20061;-72
2022/06/22 20:11:44;;;;;;;4.60;2.13;;;;;;;22.37;58.02;98889.06;10094399;29;20049;-72
2022/06/22 20:17:10;;;;;;;4.60;1.88;;;;;;;23.04;57.34;99017.47;10094325;29;20083;-72
2022/06/22 20:22:17;;;;;;;5.72;1.80;;;;;;;22.92;57.18;99022.41;10055816;29;20120;-72
2022/06/22 20:27:26;;;;;;;8.43;2.00;;;;;;;22.82;57.70;99025.19;10055045;29;20064;-72
2022/06/22 20:32:46;;;;;;;5.22;1.70;;;;;;;22.75;57.50;99023.59;10060196;29;20045;-73
2022/06/22 20:37:49;;;;;;;14.98;1.77;;;;;;;22.63;57.65;99011.50;10062347;29;20106;-74
2022/06/22 20:43:04;;;;;;;5.20;1.70;;;;;;;22.47;58.01;99008.88;10062146;29;20033;-73
2022/06/22 20:48:28;;;;;;;9.05;1.85;;;;;;;22.33;59.04;99024.91;10061321;29;20045;-71
2022/06/22 20:53:43;;;;;;;3.22;1.52;;;;;;;21.48;58.78;98924.03;10061569;29;20037;-72
2022/06/22 20:58:56;;;;;;;2.75;1.70;;;;;;;21.95;59.68;99039.06;10061547;29;20041;-74
2022/06/22 21:04:10;;;;;;;2.88;1.67;;;;;;;21.74;60.34;99024.78;10061099;29;20477;-73
2022/06/22 21:09:23;;;;;;;6.50;1.63;;;;;;;20.96;60.13;98916.00;10060059;29;20041;-73
2022/06/22 21:14:27;;;;;;;5.85;1.45;;;;;;;21.67;60.22;99044.00;10061005;29;20053;-75
2022/06/22 21:19:54;;;;;;;2.80;1.50;;;;;;;21.66;60.78;99020.78;10060373;29;20041;-74
2022/06/22 21:24:55;;;;;;;3.13;1.30;;;;;;;21.51;60.19;99027.00;10060978;29;20052;-74
2022/06/22 21:30:17;;;;;;;2.95;1.60;;;;;;;21.45;61.27;99030.78;10059845;29;20052;-74
2022/06/22 21:35:44;;;;;;;3.70;1.57;;;;;;;21.43;62.02;99031.03;10060160;29;20041;-75
2022/06/22 21:41:18;;;;;;;2.03;1.50;;;;;;;20.58;62.19;98919.22;10059698;29;20049;-74
2022/06/22 21:46:53;;;;;;;3.58;1.65;;;;;;;21.03;62.78;99004.84;10060014;29;20052;-75
2022/06/22 21:52:21;;;;;;;3.92;1.80;;;;;;;20.40;63.07;98913.25;10059256;29;20081;-74
2022/06/22 21:57:49;;;;;;;3.40;1.95;;;;;;;21.06;64.01;99038.56;10059424;29;20400;-75
2022/06/22 22:02:56;;;;;;;11.00;1.90;;;;;;;21.01;64.02;99044.78;10059208;29;20061;-74
2022/06/22 22:08:01;;;;;;;2.85;1.70;;;;;;;21.00;64.75;99036.94;10059123;29;20056;-74
2022/06/22 22:13:01;;;;;;;4.97;2.05;;;;;;;20.83;64.04;99002.13;10057892;29;20049;-74
2022/06/22 22:18:05;;;;;;;4.90;2.17;;;;;;;21.02;64.91;99022.09;10058236;29;20049;-74
2022/06/22 22:23:17;;;;;;;2.95;2.20;;;;;;;20.91;65.86;99020.47;10058899;29;20097;-73
2022/06/22 22:28:24;;;;;;;2.85;2.05;;;;;;;20.86;66.01;99023.97;10058261;29;20151;-73
2022/06/22 22:33:26;;;;;;;5.57;2.00;;;;;;;20.86;65.39;99020.47;10057623;29;20422;-75
2022/06/22 22:38:33;;;;;;;3.90;1.88;;;;;;;20.70;67.01;99014.22;10087670;29;20041;-74
2022/06/22 22:43:49;;;;;;;3.85;2.08;;;;;;;20.77;67.67;99041.78;10057876;29;20050;-74
2022/06/22 22:49:00;;;;;;;5.40;2.17;;;;;;;20.66;68.29;99059.00;10058236;29;20050;-73
2022/06/22 22:54:06;;;;;;;6.78;2.55;;;;;;;20.16;68.46;99026.19;10056898;29;20041;-73
2022/06/22 22:59:07;;;;;;;3.90;2.28;;;;;;;20.20;68.11;99045.34;10057093;29;20041;-73
2022/06/22 23:04:26;;;;;;;11.27;2.53;;;;;;;20.32;70.13;99040.53;10057179;29;20061;-74
2022/06/22 23:09:28;;;;;;;6.57;2.58;;;;;;;20.19;68.76;99028.34;10056616;29;20168;-74
2022/06/22 23:14:34;;;;;;;4.82;2.30;;;;;;;20.36;69.67;99063.19;10057040;29;20053;-74
2022/06/22 23:19:39;;;;;;;3.50;2.13;;;;;;;20.12;70.35;99056.59;10057477;29;20041;-75
2022/06/22 23:24:41;;;;;;;6.75;2.65;;;;;;;20.21;69.72;99088.19;10087025;29;20157;-74
2022/06/22 23:29:42;;;;;;;4.82;2.20;;;;;;;20.13;69.88;99087.88;10056380;29;20051;-74
2022/06/22 23:34:44;;;;;;;4.50;2.47;;;;;;;20.02;70.37;99095.91;10055412;29;20432;-74
2022/06/22 23:39:45;;;;;;;4.68;2.47;;;;;;;18.61;70.39;98885.34;10056034;29;20052;-74
2022/06/22 23:44:47;;;;;;;3.58;2.63;;;;;;;19.86;71.14;99113.03;10056852;29;20136;-74
2022/06/22 23:49:51;;;;;;;4.00;2.60;;;;;;;19.64;71.95;99098.84;10056217;29;20093;-74
2022/06/22 23:54:52;;;;;;;3.92;2.55;;;;;;;19.56;71.65;99087.50;10055496;29;20470;-74
2022/06/22 23:59:55;;;;;;;6.25;2.90;;;;;;;19.53;72.33;99090.69;10056094;29;20038;-74
